< Typhoon 202023 2021 Season Typhoon 202102 >
Typhoon 202101 (DUJUAN)
General InformationDetailed Track InformationTrack Information on Google MapsForecast History on Google MapsAccess Analytics Map || NewsDisaster Info.WeblogTrackbackTyphoon FrontTwiphoonTyphoon Now!Typhoon ImaginationJMA Disaster Info. XMLResourceGoogle EarthGE AnimationAtom FeedGeoJSON
Detalied Best Track Wind (Time Zone = UTC)
Year Month Day Hour Lat. Long. Wind (kt) Gust (kt) Direc. of Major Storm Axis Radius of Major Storm Axis (nm) Radius of Minor Storm Axis (nm) Direc. of Major Gale Axis Radius of Major Gale Axis (nm) Radius of Minor Gale Axis (nm) Image
2021 2 16 06 6.9 136.9 0 0 - - - - - - Image
2021 2 16 12 6.9 136.2 0 0 - - - - - - Image
2021 2 16 18 6.8 135.1 0 0 - - - - - - Image
2021 2 17 00 6.6 134.2 0 0 - - - - - - Image
2021 2 17 06 6.5 133.7 0 0 - - - - - - Image
2021 2 17 12 6.5 133.2 0 0 - - - - - - Image
2021 2 17 18 6.7 132.7 0 0 - - - - - - Image
2021 2 18 00 7.0 132.6 35 0 - - - NW 210 120 Image
2021 2 18 06 7.3 132.1 35 0 - - - NW 210 120 Image
2021 2 18 12 7.2 131.9 40 0 - - - NW 210 120 Image
2021 2 18 18 7.1 131.6 40 0 - - - NW 210 120 Image
2021 2 19 00 6.9 131.1 40 0 - - - NW 210 120 Image
2021 2 19 06 6.7 130.4 40 0 - - - NW 210 120 Image
2021 2 19 12 6.1 130.5 40 0 - - - NW 300 120 Image
2021 2 19 18 6.1 130.9 40 0 - - - NW 300 120 Image
2021 2 20 00 6.3 131.3 40 0 - - - NW 400 120 Image
2021 2 20 06 6.9 131.1 40 0 - - - NW 400 120 Image
2021 2 20 12 7.3 130.4 35 0 - - - NW 400 120 Image
2021 2 20 18 7.8 129.7 35 0 - - - NW 350 180 Image
2021 2 21 00 8.3 129.1 35 0 - - - NW 350 180 Image
2021 2 21 06 9.0 128.4 35 0 - - - NW 350 180 Image
2021 2 21 12 10.1 126.9 0 0 - - - - - - Image
2021 2 21 18 11.5 126.0 0 0 - - - - - - Image
2021 2 22 00 12.3 125.0 0 0 - - - - - - Image
2021 2 22 06 13.3 124.1 0 0 - - - - - - Image
2021 2 22 12 14.1 123.3 0 0 - - - - - - Image
2021 2 22 18 14.6 122.6 0 0 - - - - - - Image
2021 2 23 00 15.2 122.2 0 0 - - - - - - Image
Japan Meteorological Agency Best Track Data | Correction Date : 2021-05-20
< Typhoon 202023 2021 Season Typhoon 202102 >

Help